Time;durP1;ratioP1;P1;durP2;ratioP2;P2;SDS_P1;SDS_P2;PMS_P1;PMS_P2;Temp;Humidity;BMP_temperature;BMP_pressure;BME280_temperature;BME280_humidity;BME280_pressure;Samples;Min_cycle;Max_cycle;Signal;HPM_P1;HPM_P2
2023/10/01 00:00:16;;;;;;;10.90;3.53;;;13.90;99.90;;;;;;5061985;28;20496;-80
2023/10/01 00:02:43;;;;;;;14.45;4.25;;;14.00;99.90;;;;;;5060941;28;20024;-82
2023/10/01 00:05:10;;;;;;;12.90;3.90;;;14.00;99.90;;;;;;5063120;28;21918;-81
2023/10/01 00:07:37;;;;;;;16.45;3.65;;;14.10;99.90;;;;;;5062626;28;20037;-81
2023/10/01 00:10:10;;;;;;;13.70;3.45;;;14.10;99.90;;;;;;5061188;28;20036;-80
2023/10/01 00:12:48;;;;;;;16.65;4.13;;;14.20;99.90;;;;;;5063133;28;20086;-80
2023/10/01 00:15:16;;;;;;;20.35;3.38;;;14.30;99.90;;;;;;5061054;28;20119;-81
2023/10/01 00:17:46;;;;;;;15.75;3.90;;;14.30;99.90;;;;;;5064886;28;20555;-81
2023/10/01 00:22:51;;;;;;;9.65;3.08;;;14.50;99.90;;;;;;5054577;28;20047;-80
2023/10/01 00:25:18;;;;;;;15.60;3.72;;;14.60;99.90;;;;;;5061827;28;20172;-80
2023/10/01 00:27:44;;;;;;;12.13;3.58;;;14.60;99.90;;;;;;5063068;28;20374;-80
2023/10/01 00:30:11;;;;;;;9.13;3.00;;;14.60;99.90;;;;;;5062073;28;20025;-80
2023/10/01 00:32:37;;;;;;;11.55;3.63;;;14.60;99.90;;;;;;5060991;28;20468;-81
2023/10/01 00:35:04;;;;;;;10.30;3.78;;;14.70;99.90;;;;;;5061189;28;20118;-82
2023/10/01 00:37:30;;;;;;;9.13;3.10;;;14.70;99.90;;;;;;5062656;28;20028;-80
2023/10/01 00:39:58;;;;;;;14.23;3.78;;;14.70;99.90;;;;;;5061460;28;20404;-81
2023/10/01 00:42:24;;;;;;;15.98;3.40;;;14.70;99.90;;;;;;5057419;28;20056;-80
2023/10/01 00:44:50;;;;;;;15.15;3.38;;;14.80;99.90;;;;;;5064243;28;20024;-80
2023/10/01 00:47:16;;;;;;;7.82;3.25;;;14.80;99.90;;;;;;5066087;28;20020;-80
2023/10/01 00:49:47;;;;;;;15.40;3.95;;;14.80;99.90;;;;;;5062038;28;20332;-81
2023/10/01 00:52:19;;;;;;;11.52;3.22;;;14.80;99.90;;;;;;5056041;28;20081;-80
2023/10/01 00:54:47;;;;;;;11.05;3.45;;;14.90;99.90;;;;;;5059922;28;20115;-80
2023/10/01 00:57:17;;;;;;;14.00;3.10;;;14.80;99.90;;;;;;5062415;28;20369;-80
2023/10/01 00:59:46;;;;;;;8.05;2.88;;;14.90;99.90;;;;;;5064462;28;20020;-80
2023/10/01 01:02:15;;;;;;;10.20;2.95;;;14.90;99.90;;;;;;5056033;28;20025;-79
2023/10/01 01:04:45;;;;;;;12.57;3.13;;;14.80;99.90;;;;;;5059501;28;20052;-80
2023/10/01 01:07:19;;;;;;;7.18;2.75;;;14.90;99.90;;;;;;5056141;28;20444;-80
2023/10/01 01:09:48;;;;;;;13.88;4.00;;;14.90;99.90;;;;;;5053437;28;20029;-80
2023/10/01 01:12:15;;;;;;;10.27;3.03;;;14.90;99.90;;;;;;5061220;28;20036;-80
2023/10/01 01:14:44;;;;;;;16.80;3.58;;;14.90;99.90;;;;;;5062702;28;20111;-80
2023/10/01 01:17:11;;;;;;;11.07;2.70;;;14.80;99.90;;;;;;5058298;28;20123;-79
2023/10/01 01:19:37;;;;;;;7.43;2.55;;;14.80;99.90;;;;;;5058944;28;20041;-80
2023/10/01 01:22:03;;;;;;;10.48;2.97;;;14.90;99.90;;;;;;5060959;28;20508;-79
2023/10/01 01:24:29;;;;;;;13.77;3.75;;;14.80;99.90;;;;;;5061598;28;20025;-80
2023/10/01 01:27:00;;;;;;;8.63;2.70;;;14.80;99.90;;;;;;5060782;28;20051;-80
2023/10/01 01:29:33;;;;;;;7.18;3.05;;;14.80;99.90;;;;;;5060369;28;20504;-81
2023/10/01 01:32:15;;;;;;;10.45;3.08;;;14.80;99.90;;;;;;5060655;28;20028;-80
2023/10/01 01:34:45;;;;;;;10.43;3.17;;;14.80;99.90;;;;;;5060079;28;20094;-80
2023/10/01 01:37:30;;;;;;;10.65;2.45;;;14.80;99.90;;;;;;5059671;28;20482;-80
2023/10/01 01:39:57;;;;;;;9.68;3.50;;;14.80;99.90;;;;;;5059248;28;20020;-80
2023/10/01 01:42:24;;;;;;;11.20;2.80;;;14.80;99.90;;;;;;5056731;28;20055;-79
2023/10/01 01:47:56;;;;;;;8.38;3.05;;;14.70;99.90;;;;;;4999471;28;20057;-80
2023/10/01 01:50:26;;;;;;;9.93;2.65;;;14.70;99.90;;;;;;4994083;28;20431;-81
2023/10/01 01:52:57;;;;;;;9.77;2.58;;;14.70;99.90;;;;;;5028726;28;20040;-82
2023/10/01 01:55:29;;;;;;;4.78;2.35;;;14.70;99.90;;;;;;5055654;28;20051;-81
2023/10/01 01:58:43;;;;;;;8.82;2.42;;;14.70;99.90;;;;;;5058985;28;20033;-81
2023/10/01 02:01:17;;;;;;;5.03;2.15;;;14.70;99.90;;;;;;5056591;28;20052;-81
2023/10/01 02:03:46;;;;;;;5.47;2.25;;;14.70;99.90;;;;;;5062725;28;20032;-80
2023/10/01 02:06:14;;;;;;;11.32;2.92;;;14.70;99.90;;;;;;5062767;28;20028;-81
2023/10/01 02:08:48;;;;;;;13.90;3.30;;;14.70;99.90;;;;;;5059082;28;20167;-81
2023/10/01 02:11:14;;;;;;;6.68;2.90;;;14.70;99.90;;;;;;5058125;28;20029;-80
2023/10/01 02:13:41;;;;;;;7.82;2.78;;;14.70;99.90;;;;;;5059975;28;20044;-80
2023/10/01 02:18:58;;;;;;;8.13;2.67;;;14.60;99.90;;;;;;5059909;28;20036;-81
2023/10/01 02:24:37;;;;;;;10.45;3.67;;;14.50;99.90;;;;;;5047263;28;20091;-80
2023/10/01 02:27:04;;;;;;;;;;;14.50;99.90;;;;;;5057555;28;20442;-81
2023/10/01 02:29:32;;;;;;;;;;;14.50;99.90;;;;;;5061528;28;19924;-80
2023/10/01 02:32:04;;;;;;;8.82;2.67;;;14.50;99.90;;;;;;5061947;28;19912;-80
2023/10/01 02:34:31;;;;;;;12.02;3.35;;;14.40;99.90;;;;;;5061575;28;20071;-81
2023/10/01 02:37:03;;;;;;;8.50;2.05;;;14.30;99.90;;;;;;5060296;28;20400;-81
2023/10/01 02:39:29;;;;;;;10.02;3.00;;;14.40;99.90;;;;;;5050295;28;20103;-81
2023/10/01 02:44:40;;;;;;;7.93;2.47;;;14.30;99.90;;;;;;5056769;28;20028;-81
2023/10/01 02:47:16;;;;;;;6.40;2.40;;;14.30;99.90;;;;;;5070728;28;20062;-81
2023/10/01 02:49:59;;;;;;;6.65;3.33;;;14.30;99.90;;;;;;5061101;28;20086;-80
2023/10/01 02:52:32;;;;;;;6.43;2.60;;;14.30;99.90;;;;;;5055759;28;20036;-80
2023/10/01 02:55:00;;;;;;;6.93;2.72;;;14.30;99.90;;;;;;5057566;28;20102;-81
2023/10/01 02:57:27;;;;;;;11.45;3.47;;;14.30;99.90;;;;;;5060372;28;20033;-81
2023/10/01 03:02:58;;;;;;;7.53;2.65;;;14.40;99.90;;;;;;5048513;28;20440;-81
2023/10/01 03:05:30;;;;;;;8.95;3.70;;;14.40;99.90;;;;;;5062016;28;20028;-82
2023/10/01 03:07:57;;;;;;;11.15;4.38;;;14.40;99.90;;;;;;5059202;28;20032;-80
2023/10/01 03:10:26;;;;;;;9.13;3.10;;;14.40;99.90;;;;;;5054628;28;20029;-80
2023/10/01 03:12:57;;;;;;;5.30;2.00;;;14.40;99.90;;;;;;5059508;28;20125;-80
2023/10/01 03:15:25;;;;;;;7.57;2.67;;;14.40;99.90;;;;;;5057685;28;20140;-81
2023/10/01 03:17:58;;;;;;;12.05;3.13;;;14.50;99.90;;;;;;5060844;28;20041;-80
2023/10/01 03:23:10;;;;;;;7.72;2.38;;;14.50;99.90;;;;;;5061666;28;20490;-80
2023/10/01 03:25:57;;;;;;;4.75;2.30;;;14.50;99.90;;;;;;5057419;28;20048;-81
2023/10/01 03:28:26;;;;;;;10.48;2.80;;;14.50;99.90;;;;;;5055159;28;20044;-80
2023/10/01 03:31:12;;;;;;;8.48;3.33;;;14.40;99.90;;;;;;5058269;28;20056;-80
2023/10/01 03:33:40;;;;;;;9.10;2.92;;;14.50;99.90;;;;;;5054327;28;20091;-80
2023/10/01 03:36:11;;;;;;;15.55;3.40;;;14.50;99.90;;;;;;5065915;28;20430;-81
2023/10/01 03:38:44;;;;;;;11.50;3.80;;;14.50;99.90;;;;;;5065801;28;20021;-80
2023/10/01 03:41:21;;;;;;;7.40;2.67;;;14.50;99.90;;;;;;5059711;28;20427;-81
2023/10/01 03:43:54;;;;;;;10.13;3.13;;;14.50;99.90;;;;;;5068744;28;20036;-81
2023/10/01 03:46:26;;;;;;;11.13;3.42;;;14.50;99.90;;;;;;5058794;28;20044;-81
2023/10/01 03:51:58;;;;;;;10.38;3.67;;;14.50;99.90;;;;;;5055540;28;20051;-80
2023/10/01 03:57:16;;;;;;;10.27;2.75;;;14.60;99.90;;;;;;5064984;28;20036;-80
2023/10/01 03:59:51;;;;;;;9.63;2.38;;;14.60;99.90;;;;;;5060572;28;20039;-80
2023/10/01 04:02:42;;;;;;;9.98;2.97;;;14.60;99.90;;;;;;5059331;28;20029;-80
2023/10/01 04:05:31;;;;;;;6.28;2.50;;;14.60;99.90;;;;;;5061139;28;20032;-80
2023/10/01 04:08:10;;;;;;;15.32;3.47;;;14.60;99.90;;;;;;5050448;28;20470;-80
2023/10/01 04:10:38;;;;;;;8.15;3.20;;;14.60;99.90;;;;;;5059300;28;20025;-80
2023/10/01 04:13:13;;;;;;;14.15;4.35;;;14.60;99.90;;;;;;5057358;28;20048;-80
2023/10/01 04:15:45;;;;;;;;;;;14.70;99.90;;;;;;5071896;28;20032;-80
2023/10/01 04:23:35;;;;;;;7.50;2.70;;;14.70;99.90;;;;;;5052537;28;20040;-80
2023/10/01 04:26:05;;;;;;;10.05;3.83;;;14.80;99.90;;;;;;5059052;28;20570;-80
2023/10/01 04:28:44;;;;;;;12.18;3.45;;;14.80;99.90;;;;;;5059404;28;20043;-80
2023/10/01 04:31:10;;;;;;;10.15;3.72;;;14.80;99.90;;;;;;5056062;28;20020;-80
2023/10/01 04:33:37;;;;;;;16.80;4.53;;;14.80;99.90;;;;;;5059385;28;20039;-80
2023/10/01 04:36:10;;;;;;;7.32;3.17;;;14.90;99.90;;;;;;5051276;28;20029;-80
2023/10/01 04:38:59;;;;;;;11.73;3.83;;;15.00;99.90;;;;;;5055536;28;20025;-80
2023/10/01 04:41:25;;;;;;;11.32;3.70;;;15.00;99.90;;;;;;5058029;28;20051;-80
2023/10/01 04:44:06;;;;;;;16.10;3.85;;;15.00;99.90;;;;;;5060881;28;20537;-80
2023/10/01 04:47:30;;;;;;;13.55;3.47;;;15.00;99.90;;;;;;5057302;28;20032;-81
2023/10/01 04:50:19;;;;;;;11.23;3.55;;;15.00;99.90;;;;;;5059478;28;20046;-81
2023/10/01 04:52:45;;;;;;;11.43;3.72;;;15.00;99.90;;;;;;5064821;28;20024;-78
2023/10/01 04:55:11;;;;;;;10.75;4.00;;;15.00;99.90;;;;;;5059374;28;20036;-80
2023/10/01 04:57:48;;;;;;;16.98;3.97;;;15.00;99.90;;;;;;5062936;28;20082;-80
2023/10/01 05:00:14;;;;;;;15.10;3.88;;;14.90;99.90;;;;;;5057755;28;20555;-78
2023/10/01 05:02:43;;;;;;;11.70;4.15;;;14.90;99.90;;;;;;5063576;28;20113;-79
2023/10/01 05:05:25;;;;;;;15.20;3.92;;;14.80;99.90;;;;;;5066726;28;20024;-79
2023/10/01 05:08:01;;;;;;;13.85;4.00;;;14.90;99.90;;;;;;5063001;28;20036;-82
2023/10/01 05:10:27;;;;;;;9.82;2.85;;;14.80;99.90;;;;;;5062195;28;20028;-80
2023/10/01 05:12:58;;;;;;;9.50;3.88;;;14.70;99.90;;;;;;5060164;28;20020;-81
2023/10/01 05:15:26;;;;;;;9.40;3.67;;;14.70;99.90;;;;;;5061415;28;20524;-79
2023/10/01 05:17:55;;;;;;;8.57;4.05;;;14.70;99.90;;;;;;5059158;28;20051;-83
2023/10/01 05:20:25;;;;;;;21.95;3.97;;;14.70;99.90;;;;;;5057120;28;20016;-81
2023/10/01 05:22:54;;;;;;;12.95;3.72;;;14.70;99.90;;;;;;5058783;28;20496;-82
2023/10/01 05:25:26;;;;;;;12.40;3.67;;;14.70;99.90;;;;;;5054441;28;20024;-80
2023/10/01 05:27:54;;;;;;;10.98;4.15;;;14.60;99.90;;;;;;5056056;28;20575;-79
2023/10/01 05:30:39;;;;;;;14.25;4.22;;;14.50;99.90;;;;;;5056118;28;20463;-82
2023/10/01 05:33:06;;;;;;;9.77;4.15;;;14.50;99.90;;;;;;5057729;28;20586;-80
2023/10/01 05:35:38;;;;;;;10.60;3.92;;;14.50;99.90;;;;;;5062591;28;20063;-79
2023/10/01 05:38:07;;;;;;;10.05;3.95;;;14.50;99.90;;;;;;5058753;28;20028;-81
2023/10/01 05:40:37;;;;;;;8.43;4.10;;;14.50;99.90;;;;;;5062578;28;20059;-81
2023/10/01 05:43:13;;;;;;;14.85;4.53;;;14.50;99.90;;;;;;5064463;28;20025;-81
2023/10/01 05:45:44;;;;;;;11.45;4.28;;;14.50;99.90;;;;;;5060506;28;20024;-82
2023/10/01 05:48:18;;;;;;;13.50;4.68;;;14.50;99.90;;;;;;5053687;28;20515;-82
2023/10/01 05:50:45;;;;;;;13.30;5.28;;;14.40;99.90;;;;;;5060745;28;20008;-79
2023/10/01 05:53:13;;;;;;;10.48;4.40;;;14.40;99.90;;;;;;5061514;28;20024;-77
2023/10/01 05:55:39;;;;;;;11.85;4.43;;;14.50;99.90;;;;;;5061937;28;20450;-82
2023/10/01 05:58:22;;;;;;;10.30;4.70;;;14.40;99.90;;;;;;5060139;28;20067;-82
2023/10/01 06:01:05;;;;;;;10.48;4.68;;;14.40;99.90;;;;;;5059363;28;20031;-81
2023/10/01 06:03:32;;;;;;;11.68;4.15;;;14.40;99.90;;;;;;5060620;28;20119;-80
2023/10/01 06:06:10;;;;;;;16.02;5.75;;;14.50;99.90;;;;;;5062060;28;20043;-80
2023/10/01 06:08:45;;;;;;;12.02;4.82;;;14.40;99.90;;;;;;5065782;28;20033;-79
2023/10/01 06:11:18;;;;;;;16.20;5.32;;;14.50;99.90;;;;;;5061566;28;20016;-79
2023/10/01 06:13:51;;;;;;;13.35;3.95;;;14.50;99.90;;;;;;5059880;28;20397;-77
2023/10/01 06:16:25;;;;;;;12.00;4.72;;;14.60;99.90;;;;;;5061971;28;20532;-80
2023/10/01 06:18:58;;;;;;;11.60;4.30;;;14.60;99.90;;;;;;5060933;28;20016;-78
2023/10/01 06:21:32;;;;;;;12.77;4.78;;;14.60;99.90;;;;;;5060009;28;20453;-81
2023/10/01 06:24:04;;;;;;;13.70;4.97;;;14.60;99.90;;;;;;5058030;28;20122;-80
2023/10/01 06:26:36;;;;;;;12.05;4.93;;;14.70;99.90;;;;;;5056091;28;20111;-82
2023/10/01 06:29:07;;;;;;;13.82;5.25;;;14.70;99.90;;;;;;5055368;28;20053;-80
2023/10/01 06:31:52;;;;;;;15.05;5.32;;;14.70;99.90;;;;;;5052307;28;20831;-80
2023/10/01 06:34:23;;;;;;;15.85;6.05;;;14.90;99.90;;;;;;5060797;28;20044;-80
2023/10/01 06:36:57;;;;;;;16.63;5.50;;;14.90;99.90;;;;;;5055072;28;20036;-78
2023/10/01 06:39:24;;;;;;;15.95;5.10;;;15.00;99.90;;;;;;5057917;28;20037;-78
2023/10/01 06:41:50;;;;;;;17.40;5.03;;;15.00;99.90;;;;;;5059701;28;20094;-77
2023/10/01 06:44:16;;;;;;;10.38;4.65;;;15.00;99.90;;;;;;5063976;28;20024;-78
2023/10/01 06:46:44;;;;;;;13.75;4.57;;;15.10;99.90;;;;;;5062683;28;20028;-78
2023/10/01 06:49:09;;;;;;;12.90;4.80;;;15.10;99.90;;;;;;5062469;28;20033;-79
2023/10/01 06:51:45;;;;;;;14.70;5.13;;;15.20;99.90;;;;;;5059245;28;20355;-76
2023/10/01 06:54:12;;;;;;;12.88;4.60;;;15.20;99.90;;;;;;5060351;28;20101;-80
2023/10/01 07:14:54;;;;;;;10.85;4.45;;;15.30;99.90;;;;;;4562121;23;20103;-77
2023/10/01 07:17:25;;;;;;;14.43;4.57;;;15.30;99.90;;;;;;4960934;28;20073;-77
2023/10/01 07:20:01;;;;;;;17.17;5.47;;;15.30;99.90;;;;;;4964644;28;20077;-79
2023/10/01 07:22:31;;;;;;;15.38;5.55;;;15.40;99.90;;;;;;4964801;28;20110;-81
2023/10/01 07:27:56;;;;;;;12.43;4.38;;;15.40;99.90;;;;;;4966966;28;20029;-77
2023/10/01 07:30:51;;;;;;;11.07;4.95;;;15.50;99.90;;;;;;4967309;28;20325;-78
2023/10/01 07:33:17;;;;;;;12.60;5.63;;;15.50;99.90;;;;;;4951275;28;20062;-79
2023/10/01 07:35:58;;;;;;;13.85;5.22;;;15.50;99.90;;;;;;4962611;28;20089;-79
2023/10/01 07:38:28;;;;;;;15.48;4.63;;;15.60;99.90;;;;;;4965523;28;20038;-78
2023/10/01 07:40:57;;;;;;;12.40;4.90;;;15.50;99.90;;;;;;4964306;28;20035;-78
2023/10/01 07:43:27;;;;;;;12.50;4.90;;;15.60;99.90;;;;;;4964602;28;20025;-80
2023/10/01 07:45:58;;;;;;;12.13;4.90;;;15.60;99.90;;;;;;4970168;28;20095;-78
2023/10/01 07:48:28;;;;;;;12.32;4.82;;;15.70;99.90;;;;;;4959192;28;20402;-79
2023/10/01 07:50:55;;;;;;;11.60;4.53;;;15.70;99.90;;;;;;4963457;28;20384;-79
2023/10/01 07:53:23;;;;;;;13.15;5.15;;;15.70;99.90;;;;;;4967224;28;20031;-79
2023/10/01 07:55:48;;;;;;;17.55;5.30;;;15.80;99.90;;;;;;4967953;28;20447;-78
2023/10/01 07:58:23;;;;;;;13.43;4.97;;;15.80;99.90;;;;;;4965300;28;20045;-80
2023/10/01 08:00:58;;;;;;;8.60;4.07;;;15.80;99.90;;;;;;4964325;28;20023;-80
2023/10/01 08:05:50;;;;;;;10.40;4.70;;;15.90;99.90;;;;;;4965032;28;19953;-78
2023/10/01 08:08:35;;;;;;;10.88;4.13;;;15.90;99.90;;;;;;4960224;28;20550;-79
2023/10/01 08:11:55;;;;;;;16.15;5.13;;;16.00;99.90;;;;;;4968294;28;20031;-79
2023/10/01 08:13:57;;;;;;;14.27;5.78;;;16.00;99.90;;;;;;4965245;28;20045;-78
2023/10/01 08:16:23;;;;;;;12.18;4.80;;;16.10;99.90;;;;;;4968176;28;20526;-78
2023/10/01 08:18:57;;;;;;;13.68;4.72;;;16.10;99.90;;;;;;4966106;28;20105;-79
2023/10/01 08:21:30;;;;;;;14.75;5.55;;;16.10;99.90;;;;;;4960997;28;20526;-79
2023/10/01 08:23:57;;;;;;;13.13;5.03;;;16.20;99.90;;;;;;4967909;28;20022;-79
2023/10/01 08:26:49;;;;;;;14.07;4.80;;;16.20;99.90;;;;;;4958470;28;20666;-79
2023/10/01 08:29:15;;;;;;;12.90;4.72;;;16.20;99.90;;;;;;4963785;28;20023;-79
2023/10/01 08:34:24;;;;;;;14.23;4.70;;;16.20;99.90;;;;;;4967988;28;20445;-79
2023/10/01 08:36:54;;;;;;;13.60;4.50;;;16.40;99.90;;;;;;4964020;28;20062;-79
2023/10/01 08:39:22;;;;;;;14.20;4.57;;;16.40;99.90;;;;;;4963546;28;20035;-80
2023/10/01 08:41:51;;;;;;;16.33;4.95;;;16.40;99.90;;;;;;4966506;28;20046;-80
2023/10/01 08:44:30;;;;;;;13.00;4.57;;;16.60;99.90;;;;;;4963988;28;20031;-78
2023/10/01 08:46:59;;;;;;;12.55;4.70;;;16.60;99.90;;;;;;4966368;28;20130;-79
2023/10/01 08:49:30;;;;;;;15.48;5.40;;;16.50;99.90;;;;;;4967865;28;20051;-79
2023/10/01 08:52:19;;;;;;;8.50;3.83;;;16.60;99.90;;;;;;4962614;28;20091;-80
2023/10/01 08:54:45;;;;;;;11.13;5.35;;;16.70;99.90;;;;;;4969843;28;20395;-79
2023/10/01 08:57:17;;;;;;;15.15;4.70;;;16.70;99.90;;;;;;4967813;28;20034;-80
2023/10/01 08:59:46;;;;;;;14.55;4.68;;;16.70;99.90;;;;;;4964739;28;20023;-80
2023/10/01 09:02:20;;;;;;;19.48;5.80;;;16.70;99.90;;;;;;4965123;28;20031;-80
2023/10/01 09:04:47;;;;;;;15.15;4.72;;;16.70;99.90;;;;;;4968898;28;20046;-78
2023/10/01 09:07:18;;;;;;;14.82;5.05;;;16.70;99.90;;;;;;4967303;28;20035;-80
2023/10/01 09:10:07;;;;;;;14.70;4.25;;;16.80;99.90;;;;;;4963320;28;20035;-79
2023/10/01 09:12:45;;;;;;;10.60;4.05;;;16.80;99.90;;;;;;4967508;28;20026;-80
2023/10/01 09:15:38;;;;;;;11.07;4.35;;;16.80;99.90;;;;;;4967836;28;20050;-79
2023/10/01 09:18:10;;;;;;;9.63;4.72;;;16.80;99.90;;;;;;4961257;28;20023;-80
2023/10/01 09:20:37;;;;;;;10.20;4.32;;;16.90;99.90;;;;;;4965683;28;20035;-81
2023/10/01 09:23:02;;;;;;;15.48;5.15;;;16.90;99.90;;;;;;4970669;28;20054;-82
2023/10/01 09:25:30;;;;;;;9.02;3.70;;;17.00;99.90;;;;;;4964994;28;20386;-80
2023/10/01 09:28:38;;;;;;;12.63;4.03;;;17.00;99.90;;;;;;4968595;28;20034;-81
2023/10/01 09:31:26;;;;;;;13.00;4.65;;;17.00;99.90;;;;;;4962189;28;20533;-80
2023/10/01 09:33:51;;;;;;;9.85;4.30;;;17.10;99.90;;;;;;4967342;28;20049;-82
2023/10/01 09:36:45;;;;;;;11.02;4.50;;;17.10;99.90;;;;;;4961085;28;20533;-81
2023/10/01 09:39:22;;;;;;;10.32;4.22;;;17.20;99.90;;;;;;4970659;28;20058;-81
2023/10/01 09:41:53;;;;;;;9.82;4.50;;;17.20;99.90;;;;;;4965800;28;20042;-82
2023/10/01 09:44:23;;;;;;;14.45;4.38;;;17.30;99.90;;;;;;4966116;28;20035;-81
2023/10/01 09:46:50;;;;;;;13.68;4.32;;;17.30;99.90;;;;;;4966386;28;20038;-80
2023/10/01 09:49:30;;;;;;;15.85;5.10;;;17.40;99.90;;;;;;4963673;28;20034;-81
2023/10/01 09:51:58;;;;;;;6.78;3.70;;;17.40;99.90;;;;;;4962495;28;20046;-80
2023/10/01 09:54:28;;;;;;;9.48;3.95;;;17.40;99.90;;;;;;4958265;28;20484;-80
2023/10/01 09:56:56;;;;;;;16.10;4.22;;;17.50;99.90;;;;;;4960288;28;20030;-80
2023/10/01 09:59:26;;;;;;;16.17;5.30;;;17.40;99.90;;;;;;4962545;28;20038;-80
2023/10/01 10:01:53;;;;;;;14.18;4.63;;;17.40;99.90;;;;;;4963857;28;20073;-80
2023/10/01 10:04:20;;;;;;;11.85;4.80;;;17.50;99.90;;;;;;4962507;28;20038;-80
2023/10/01 10:06:59;;;;;;;11.25;4.50;;;17.40;99.90;;;;;;4960717;28;20031;-81
2023/10/01 10:09:27;;;;;;;10.82;4.60;;;17.50;99.90;;;;;;4962642;28;20487;-80
2023/10/01 10:11:54;;;;;;;14.07;4.80;;;17.50;99.90;;;;;;4964585;28;20027;-81
2023/10/01 10:14:25;;;;;;;14.85;4.72;;;17.50;99.90;;;;;;4964740;28;20515;-80
2023/10/01 10:16:56;;;;;;;14.07;4.25;;;17.50;99.90;;;;;;4960765;28;20043;-80
2023/10/01 10:19:22;;;;;;;14.93;5.43;;;17.60;99.90;;;;;;4955806;28;20114;-80
2023/10/01 10:22:16;;;;;;;13.05;4.60;;;17.70;99.90;;;;;;4956813;28;20091;-80
2023/10/01 10:24:46;;;;;;;10.02;4.07;;;17.70;99.90;;;;;;4961796;28;20066;-80
2023/10/01 10:27:33;;;;;;;9.00;3.78;;;17.80;99.90;;;;;;4961558;28;20106;-80
2023/10/01 10:30:05;;;;;;;17.05;4.57;;;17.80;99.90;;;;;;4963113;28;20038;-81
2023/10/01 10:32:33;;;;;;;10.40;5.28;;;18.00;99.90;;;;;;4958450;28;20316;-80
2023/10/01 10:35:04;;;;;;;14.48;5.07;;;18.00;99.90;;;;;;4960716;28;20117;-81
2023/10/01 10:37:38;;;;;;;11.32;4.75;;;18.10;99.90;;;;;;4962586;28;20114;-79
2023/10/01 10:43:07;;;;;;;11.70;4.78;;;18.10;99.90;;;;;;4961498;28;20037;-80
2023/10/01 10:45:43;;;;;;;13.95;5.38;;;18.20;99.90;;;;;;4963700;28;20530;-79
2023/10/01 10:48:14;;;;;;;11.02;5.18;;;18.30;99.90;;;;;;4964229;28;20050;-80
2023/10/01 10:50:54;;;;;;;15.43;5.90;;;18.30;99.90;;;;;;4964494;28;20442;-79
2023/10/01 10:53:20;;;;;;;10.63;4.65;;;18.40;99.90;;;;;;4966100;28;20034;-80
2023/10/01 10:56:02;;;;;;;13.00;4.72;;;18.40;99.90;;;;;;4965389;28;20047;-80
2023/10/01 10:58:37;;;;;;;13.05;4.72;;;18.50;99.90;;;;;;4966180;28;20035;-79
2023/10/01 11:01:15;;;;;;;10.57;4.53;;;18.70;99.90;;;;;;4965065;28;20038;-80
2023/10/01 11:03:44;;;;;;;12.43;5.05;;;18.70;99.90;;;;;;4960301;28;20041;-80
2023/10/01 11:06:19;;;;;;;11.25;5.13;;;18.70;99.90;;;;;;4963278;28;20027;-80
2023/10/01 11:08:53;;;;;;;18.20;5.55;;;18.80;99.90;;;;;;4965959;28;20074;-80
2023/10/01 11:11:28;;;;;;;10.52;4.68;;;18.80;99.90;;;;;;4962107;28;20057;-79
2023/10/01 11:14:00;;;;;;;16.23;5.95;;;18.70;99.90;;;;;;4966155;28;20314;-80
2023/10/01 11:16:44;;;;;;;12.40;5.50;;;18.70;99.90;;;;;;4963124;28;20225;-82
2023/10/01 11:19:16;;;;;;;17.02;5.68;;;18.70;99.90;;;;;;4956735;28;20027;-81
2023/10/01 11:21:55;;;;;;;13.98;5.07;;;18.70;99.90;;;;;;4959440;28;20475;-80
2023/10/01 11:24:32;;;;;;;11.65;5.47;;;18.70;99.90;;;;;;4958025;28;20031;-81
2023/10/01 11:27:43;;;;;;;13.57;5.10;;;18.70;99.90;;;;;;4959827;28;20023;-80
2023/10/01 11:30:17;;;;;;;11.25;4.63;;;18.70;99.90;;;;;;4959901;28;20035;-79
2023/10/01 11:33:12;;;;;;;13.00;3.97;;;18.70;99.90;;;;;;4958492;28;20050;-79
2023/10/01 11:35:59;;;;;;;17.25;4.88;;;18.70;99.90;;;;;;4961169;28;20073;-79
2023/10/01 11:38:28;;;;;;;12.18;5.13;;;18.70;99.90;;;;;;4961222;28;20038;-80
2023/10/01 11:41:08;;;;;;;12.40;5.15;;;18.70;99.90;;;;;;4961312;28;20027;-80
2023/10/01 11:44:16;;;;;;;12.63;5.47;;;18.60;99.90;;;;;;4957249;28;20031;-81
2023/10/01 11:46:35;;;;;;;17.30;6.32;;;18.60;99.90;;;;;;4959935;28;20057;-80
2023/10/01 11:49:06;;;;;;;12.65;5.25;;;18.70;99.90;;;;;;4958652;28;20042;-80
2023/10/01 11:51:44;;;;;;;11.50;5.32;;;18.60;99.90;;;;;;4958470;28;20052;-80
2023/10/01 11:54:14;;;;;;;15.77;5.25;;;18.60;99.90;;;;;;4958272;28;20142;-80
2023/10/01 11:56:42;;;;;;;13.23;5.35;;;18.70;99.90;;;;;;4962107;28;20046;-80
2023/10/01 11:59:17;;;;;;;14.02;5.75;;;18.70;99.90;;;;;;4962462;28;20034;-81
2023/10/01 12:01:49;;;;;;;11.85;5.80;;;18.70;99.90;;;;;;4964587;28;20034;-81
2023/10/01 12:04:43;;;;;;;13.43;5.68;;;18.80;99.90;;;;;;4964449;28;20038;-80
2023/10/01 12:07:15;;;;;;;15.52;6.55;;;18.80;99.90;;;;;;4962531;28;20470;-80
2023/10/01 12:09:48;;;;;;;11.50;5.25;;;18.90;99.90;;;;;;4959708;28;20408;-81
2023/10/01 12:12:37;;;;;;;12.50;6.25;;;19.00;99.90;;;;;;4954763;28;20663;-80
2023/10/01 12:17:53;;;;;;;14.80;6.28;;;19.00;99.90;;;;;;4958982;28;20145;-81
2023/10/01 12:20:22;;;;;;;13.27;6.10;;;19.00;99.90;;;;;;4964273;28;20035;-80
2023/10/01 12:23:08;;;;;;;18.42;6.65;;;19.10;99.90;;;;;;4962153;28;20058;-80
2023/10/01 12:25:46;;;;;;;16.00;7.03;;;19.10;99.90;;;;;;4962827;28;20464;-80
2023/10/01 12:28:27;;;;;;;17.77;7.53;;;19.20;99.90;;;;;;4960619;28;20083;-80
2023/10/01 12:31:09;;;;;;;16.98;7.05;;;19.20;99.90;;;;;;4961514;28;20039;-80
2023/10/01 12:33:40;;;;;;;13.63;6.35;;;19.20;99.90;;;;;;4961545;28;20474;-80
2023/10/01 12:44:31;;;;;;;14.10;6.15;;;19.50;99.90;;;;;;4965409;28;20192;-81
2023/10/01 12:47:09;;;;;;;17.77;7.30;;;19.60;99.90;;;;;;4967343;28;20045;-81
2023/10/01 12:49:36;;;;;;;17.40;7.03;;;19.70;99.90;;;;;;4968388;28;20034;-81
2023/10/01 12:52:08;;;;;;;12.32;6.32;;;19.80;99.90;;;;;;4963903;28;20045;-81
2023/10/01 12:54:44;;;;;;;12.25;5.38;;;19.90;99.90;;;;;;4960461;28;20220;-80
2023/10/01 12:57:12;;;;;;;15.77;6.13;;;19.90;99.90;;;;;;4959758;28;20126;-80
2023/10/01 12:59:43;;;;;;;13.95;6.30;;;20.00;99.90;;;;;;4963964;28;20561;-82
2023/10/01 13:07:40;;;;;;;18.17;6.43;;;20.20;99.90;;;;;;4965041;28;20312;-80
2023/10/01 13:10:15;;;;;;;11.60;5.40;;;20.30;99.90;;;;;;4960183;28;20390;-81
2023/10/01 13:15:37;;;;;;;12.98;5.72;;;20.60;99.90;;;;;;4955132;28;20045;-80
2023/10/01 13:18:16;;;;;;;17.65;6.50;;;20.80;99.90;;;;;;4962001;28;20030;-82
2023/10/01 13:20:59;;;;;;;17.38;5.90;;;20.80;99.90;;;;;;4962834;28;20027;-80
2023/10/01 13:23:31;;;;;;;15.68;6.70;;;20.90;99.90;;;;;;4960790;28;20035;-79
2023/10/01 13:26:09;;;;;;;16.83;6.55;;;20.90;99.90;;;;;;4962458;28;20716;-80
2023/10/01 13:28:50;;;;;;;21.35;7.15;;;21.00;99.90;;;;;;4968248;28;20109;-78
2023/10/01 13:34:09;;;;;;;15.90;7.03;;;21.10;99.90;;;;;;4964639;28;20105;-80
2023/10/01 13:37:11;;;;;;;19.83;7.30;;;21.10;99.90;;;;;;4960364;28;20096;-80
2023/10/01 14:09:48;;;;;;;12.60;6.22;;;21.40;99.90;;;;;;4964599;28;20037;-80
2023/10/01 14:15:04;;;;;;;13.70;6.35;;;21.50;99.90;;;;;;4966016;28;20116;-80
2023/10/01 14:17:30;;;;;;;16.92;6.70;;;21.60;99.90;;;;;;4963322;28;20031;-81
2023/10/01 14:19:56;;;;;;;18.80;6.43;;;21.60;99.90;;;;;;4966475;28;20117;-81
2023/10/01 14:22:23;;;;;;;16.80;6.80;;;21.60;99.90;;;;;;4965511;28;20132;-80
2023/10/01 14:24:50;;;;;;;17.58;6.95;;;21.70;99.90;;;;;;4959185;28;20121;-80
2023/10/01 14:27:25;;;;;;;15.63;6.50;;;21.60;99.90;;;;;;4962193;28;20136;-80
2023/10/01 14:30:01;;;;;;;14.15;7.15;;;21.60;99.90;;;;;;4964041;28;20077;-81
2023/10/01 14:32:34;;;;;;;13.93;6.38;;;21.60;99.90;;;;;;4962857;28;20035;-80
2023/10/01 14:35:14;;;;;;;19.92;7.72;;;21.70;99.90;;;;;;4962585;28;20403;-81
2023/10/01 14:37:56;;;;;;;14.07;6.78;;;21.60;99.90;;;;;;4961575;28;20387;-81
2023/10/01 14:40:25;;;;;;;14.68;7.47;;;21.60;99.90;;;;;;4961069;28;20019;-80
2023/10/01 14:43:00;;;;;;;20.27;7.50;;;21.60;99.90;;;;;;4960776;28;20031;-80
2023/10/01 14:45:34;;;;;;;15.38;6.70;;;21.60;99.90;;;;;;4963936;28;20079;-81
2023/10/01 14:48:06;;;;;;;16.00;6.10;;;21.70;99.90;;;;;;4959979;28;20041;-81
2023/10/01 14:50:39;;;;;;;16.08;6.38;;;21.60;99.90;;;;;;4967191;28;20085;-80
2023/10/01 14:53:15;;;;;;;18.25;7.30;;;21.60;99.90;;;;;;4964797;28;20031;-80
2023/10/01 14:55:42;;;;;;;18.30;6.82;;;21.50;99.90;;;;;;4962839;28;20065;-80
2023/10/01 14:58:12;;;;;;;17.25;7.50;;;21.60;99.90;;;;;;4962243;28;20406;-81
2023/10/01 15:00:52;;;;;;;17.48;7.13;;;21.50;99.90;;;;;;4965933;28;20038;-81
2023/10/01 15:03:19;;;;;;;16.38;6.43;;;21.70;99.90;;;;;;4963538;28;20034;-80
2023/10/01 15:05:45;;;;;;;14.13;6.78;;;21.60;99.90;;;;;;4964395;28;20077;-80